createdAt,value
2018-05-11T00:00:07.719Z,82.7
2018-05-11T00:05:05.519Z,82.9
2018-05-11T00:10:03.208Z,82.9
2018-05-11T00:15:07.585Z,83.3
2018-05-11T00:20:05.469Z,83.9
2018-05-11T00:25:08.328Z,84.4
2018-05-11T00:30:05.192Z,84
2018-05-11T00:35:02.923Z,84
2018-05-11T00:40:02.748Z,83.4
2018-05-11T00:45:05.441Z,83.3
2018-05-11T00:50:05.238Z,82.9
2018-05-11T00:55:10.568Z,83.2
2018-05-11T01:00:02.861Z,83.1
2018-05-11T01:05:03.125Z,82.8
2018-05-11T01:10:15.463Z,83
2018-05-11T01:15:10.776Z,83
2018-05-11T01:20:03.100Z,83
2018-05-11T01:25:03.396Z,83.2
2018-05-11T01:30:10.314Z,82.6
2018-05-11T01:35:05.491Z,82.5
2018-05-11T01:40:06.015Z,83.2
2018-05-11T01:45:05.225Z,82.9
2018-05-11T01:50:03.519Z,82.9
2018-05-11T01:55:05.375Z,83
2018-05-11T02:00:02.656Z,83
2018-05-11T02:05:02.920Z,83.4
2018-05-11T02:10:05.262Z,82.9
2018-05-11T02:15:05.557Z,82.8
2018-05-11T02:20:05.476Z,83.4
2018-05-11T02:25:15.866Z,83.6
2018-05-11T02:30:03.133Z,83.5
2018-05-11T02:35:06.028Z,83
2018-05-11T02:40:05.231Z,83.6
2018-05-11T02:45:03.079Z,83.6
2018-05-11T02:50:03.354Z,84
2018-05-11T02:55:05.223Z,84
2018-05-11T03:00:08.563Z,84
2018-05-11T03:05:17.990Z,83.8
2018-05-11T03:10:02.748Z,83.8
2018-05-11T03:15:05.561Z,84
2018-05-11T03:20:05.637Z,84.1
2018-05-11T03:25:08.389Z,84.5
2018-05-11T03:30:02.659Z,84.5
2018-05-11T03:35:05.568Z,84
2018-05-11T03:40:03.284Z,84
2018-05-11T03:45:07.673Z,84.7
2018-05-11T03:50:13.076Z,85
2018-05-11T03:55:08.203Z,84.8
2018-05-11T04:00:03.689Z,84.8
2018-05-11T04:05:02.706Z,84.9
2018-05-11T04:10:08.473Z,86.1
2018-05-11T04:15:02.696Z,86.1
2018-05-11T04:20:03.128Z,86
2018-05-11T04:25:03.381Z,86.7
2018-05-11T04:30:05.246Z,87.6
2018-05-11T04:35:03.302Z,87.6
2018-05-11T04:40:18.653Z,86.8
2018-05-11T04:45:05.212Z,86.9
2018-05-11T04:50:03.489Z,86.9
2018-05-11T04:55:23.019Z,87.1
2018-05-11T05:00:03.310Z,87.1
2018-05-11T05:05:02.632Z,86.3
2018-05-11T05:10:05.888Z,86.4
2018-05-11T05:15:02.761Z,86.4
2018-05-11T05:20:08.230Z,85.2
2018-05-11T05:25:18.650Z,85.6
2018-05-11T05:30:05.412Z,85
2018-05-11T05:35:05.742Z,85.6
2018-05-11T05:40:06.145Z,85.7
2018-05-11T05:45:05.373Z,85.7
2018-05-11T05:50:05.146Z,85.9
2018-05-11T05:55:05.454Z,85.8
2018-05-11T06:00:02.882Z,85.9
2018-05-11T06:05:03.160Z,86.5
2018-05-11T06:10:05.521Z,86.3
2018-05-11T06:15:05.808Z,85.7
2018-05-11T06:20:03.152Z,85.7
2018-05-11T06:25:06.041Z,86.1
2018-05-11T06:30:05.902Z,86.1
2018-05-11T06:35:05.140Z,86.5
2018-05-11T06:40:15.512Z,86
2018-05-11T06:45:05.770Z,86.1
2018-05-11T06:50:08.089Z,86.5
2018-05-11T06:55:03.377Z,86.5
2018-05-11T07:00:05.187Z,86.6
2018-05-11T07:05:07.936Z,85.4
2018-05-11T07:10:05.286Z,84.8
2018-05-11T07:15:08.009Z,84.9
2018-05-11T07:20:21.080Z,84.5
2018-05-11T07:25:02.791Z,84.5
2018-05-11T07:30:03.083Z,84.4
2018-05-11T07:35:08.456Z,83.5
2018-05-11T07:40:03.124Z,83.5
2018-05-11T07:45:03.483Z,83.2
2018-05-11T07:50:02.704Z,83.3
2018-05-11T07:55:08.057Z,82.8
2018-05-11T08:00:03.300Z,82.8
2018-05-11T08:05:02.718Z,82.9
2018-05-11T08:10:03.479Z,82
2018-05-11T08:15:02.975Z,81.6
2018-05-11T08:20:03.330Z,80.9
2018-05-11T08:25:02.640Z,81
2018-05-11T08:30:02.880Z,81.2
2018-05-11T08:35:03.163Z,80.8
2018-05-11T08:40:07.948Z,79.3
2018-05-11T08:45:03.232Z,79.5
2018-05-11T08:50:10.281Z,79.7
2018-05-11T08:55:07.986Z,79.4
2018-05-11T09:00:05.869Z,77.4
2018-05-11T09:05:22.879Z,77.5
2018-05-11T09:10:10.291Z,78.2
2018-05-11T09:15:05.596Z,77.6
2018-05-11T09:20:05.737Z,78.2
2018-05-11T09:25:03.305Z,78.1
2018-05-11T09:30:07.628Z,76.9
2018-05-11T09:35:02.896Z,76.9
2018-05-11T09:40:05.138Z,75.4
2018-05-11T09:45:02.993Z,75.4
2018-05-11T09:50:03.282Z,74.8
2018-05-11T09:55:17.798Z,74.4
2018-05-11T10:00:03.147Z,74.3
2018-05-11T10:05:05.908Z,74.2
2018-05-11T10:10:12.761Z,74.6
2018-05-11T10:15:05.445Z,74.6
2018-05-11T10:20:02.791Z,74.5
2018-05-11T10:25:03.143Z,74.7
2018-05-11T10:30:05.945Z,75.7
2018-05-11T10:35:05.254Z,75.7
2018-05-11T10:40:05.510Z,75.8
2018-05-11T10:50:03.021Z,75.7
2018-05-11T10:55:03.339Z,75.4
2018-05-11T11:00:02.611Z,74.9
2018-05-11T11:05:05.622Z,74.2
2018-05-11T11:10:03.363Z,74.2
2018-05-11T11:15:02.710Z,73.8
2018-05-11T11:20:10.665Z,72.6
2018-05-11T11:25:05.931Z,73
2018-05-11T11:30:10.862Z,72.3
2018-05-11T11:35:10.318Z,71.6
2018-05-11T11:40:02.989Z,71.5
2018-05-11T11:45:05.972Z,71.6
2018-05-11T11:50:03.297Z,71.6
2018-05-11T11:55:05.105Z,71.5
2018-05-11T12:00:03.523Z,71.4
2018-05-11T12:05:10.414Z,72.3
2018-05-11T12:10:03.144Z,72.3
2018-05-11T12:15:05.067Z,71.9
2018-05-11T12:20:05.981Z,72.4
2018-05-11T12:25:02.742Z,72.4
2018-05-11T12:30:03.269Z,71.2
2018-05-11T12:35:02.639Z,71
2018-05-11T12:40:03.416Z,72
2018-05-11T12:45:02.721Z,71.6
2018-05-11T12:50:03.108Z,71.7
2018-05-11T12:55:05.894Z,70.9
2018-05-11T13:00:05.734Z,71.4
2018-05-11T13:05:02.562Z,71.4
2018-05-11T13:10:03.288Z,72.3
2018-05-11T13:15:05.160Z,72.5
2018-05-11T13:20:07.701Z,74.1
2018-05-11T13:25:02.906Z,74.1
2018-05-11T13:30:08.321Z,73.4
2018-05-11T13:35:02.624Z,73.4
2018-05-11T13:40:03.519Z,74.4
2018-05-11T13:45:02.945Z,72.9
2018-05-11T13:50:02.718Z,73.5
2018-05-11T13:55:05.835Z,73.1
2018-05-11T14:00:10.147Z,72.5
2018-05-11T14:05:02.910Z,72.5
2018-05-11T14:10:07.818Z,72.4
2018-05-11T14:15:03.156Z,72.4
2018-05-11T14:20:03.545Z,71.2
2018-05-11T14:25:03.248Z,71.6
2018-05-11T14:30:02.568Z,71.3
2018-05-11T14:35:02.883Z,71.5
2018-05-11T14:40:07.753Z,72
2018-05-11T14:45:02.998Z,72
2018-05-11T14:50:03.274Z,71
2018-05-11T14:55:12.768Z,70.7
2018-05-11T15:00:03.111Z,70.7
2018-05-11T15:05:03.438Z,70.6
2018-05-11T15:10:03.284Z,70.3
2018-05-11T15:15:10.362Z,69.4
2018-05-11T15:20:02.747Z,69.4
2018-05-11T15:25:20.788Z,69.8
2018-05-11T15:30:10.739Z,70.1
2018-05-11T15:35:06.002Z,70.9
2018-05-11T15:40:05.286Z,70.7
2018-05-11T15:45:13.370Z,70.4
2018-05-11T15:50:02.693Z,70.4
2018-05-11T15:55:05.774Z,70.5
2018-05-11T16:00:03.135Z,70.4
2018-05-11T16:05:03.450Z,69.8
2018-05-11T16:10:05.894Z,61.5
2018-05-11T16:15:05.267Z,58.1
2018-05-11T16:20:10.289Z,55.8
2018-05-11T16:25:08.177Z,55.3
2018-05-11T16:30:02.653Z,55.3
2018-05-11T16:35:08.169Z,55
2018-05-11T16:40:03.009Z,55
2018-05-11T16:45:03.384Z,55.4
2018-05-11T16:50:07.915Z,57.6
2018-05-11T16:55:05.668Z,58.9
2018-05-11T17:00:05.532Z,59.9
2018-05-11T17:05:08.471Z,59.8
2018-05-11T17:10:03.252Z,59.8
2018-05-11T17:15:10.205Z,62.9
2018-05-11T17:20:07.804Z,63.5
2018-05-11T17:25:08.181Z,64.1
2018-05-11T17:30:11.053Z,64.4
2018-05-11T17:35:05.377Z,64.6
2018-05-11T17:40:03.091Z,64.5
2018-05-11T17:45:05.066Z,66
2018-05-11T17:50:06.003Z,67.1
2018-05-11T17:55:05.350Z,68
2018-05-11T18:00:02.694Z,68
2018-05-11T18:05:03.009Z,68.6
2018-05-11T18:10:08.000Z,70.2
2018-05-11T18:15:02.619Z,70.2
2018-05-11T18:20:05.620Z,72.4
2018-05-11T18:25:05.914Z,73.3
2018-05-11T18:30:03.236Z,73.3
2018-05-11T18:35:28.033Z,75.1
2018-05-11T18:40:02.789Z,75.1
2018-05-11T18:45:03.157Z,75.9
2018-05-11T18:50:11.098Z,77
2018-05-11T18:55:02.979Z,77
2018-05-11T19:00:03.323Z,77.7
2018-05-11T19:05:05.208Z,78.8
2018-05-11T19:10:18.157Z,79.5
2018-05-11T19:15:05.815Z,79.9
2018-05-11T19:20:03.183Z,79.9
2018-05-11T19:25:02.591Z,80.4
2018-05-11T19:30:10.495Z,81.3
2018-05-11T19:35:03.202Z,81.3
2018-05-11T19:40:20.678Z,81.8
2018-05-11T19:45:03.494Z,81.8
2018-05-11T19:50:07.915Z,82.3
2018-05-11T19:55:10.747Z,82.5
2018-05-11T20:00:03.158Z,82.5
2018-05-11T20:05:03.557Z,82.8
2018-05-11T20:10:05.896Z,83.3
2018-05-11T20:15:05.163Z,83.5
2018-05-11T20:20:07.769Z,83.5
2018-05-11T20:25:10.635Z,84
2018-05-11T20:30:08.003Z,83.9
2018-05-11T20:35:08.355Z,84
2018-05-11T20:40:10.755Z,84.1
2018-05-11T20:45:02.551Z,84.1
2018-05-11T20:50:02.835Z,84.5
2018-05-11T20:55:25.920Z,85.1
2018-05-11T21:00:08.289Z,85.4
2018-05-11T21:05:10.236Z,85.6
2018-05-11T21:10:10.591Z,85.9
2018-05-11T21:15:10.882Z,86.1
2018-05-11T21:20:28.518Z,86.1
2018-05-11T21:25:02.761Z,86.1
2018-05-11T21:30:13.226Z,86.7
2018-05-11T21:35:11.090Z,86.7
2018-05-11T21:40:07.908Z,86.8
2018-05-11T21:45:03.183Z,86.8
2018-05-11T21:50:11.064Z,87.2
2018-05-11T21:55:07.842Z,87.1
2018-05-11T22:00:13.343Z,87
2018-05-11T22:05:02.625Z,86.9
2018-05-11T22:10:03.363Z,86.5
2018-05-11T22:15:02.674Z,86.5
2018-05-11T22:20:03.091Z,86.7
2018-05-11T22:25:03.411Z,86.6
2018-05-11T22:30:05.220Z,87.2
2018-05-11T22:35:18.188Z,86.8
2018-05-11T22:40:05.409Z,86.7
2018-05-11T22:45:03.222Z,86.7
2018-05-11T22:50:08.609Z,86.9
2018-05-11T22:55:10.449Z,86.7
2018-05-11T23:00:10.329Z,87
2018-05-11T23:05:05.580Z,88.2
2018-05-11T23:10:06.110Z,88.3
2018-05-11T23:15:10.285Z,88
2018-05-11T23:20:05.195Z,88
2018-05-11T23:25:05.411Z,88.4
2018-05-11T23:30:05.254Z,88
2018-05-11T23:35:08.207Z,87.9
2018-05-11T23:40:05.655Z,88
2018-05-11T23:45:08.461Z,88
2018-05-11T23:50:05.325Z,88.2
2018-05-11T23:55:10.630Z,87.6
